Northmoor, Missouri
Current Conditions -  °F | °C
As of 5:54 AM on Monday 24 Nov 2014 (Local Time) from KMKC Reporting Station
Overcast Overcast  
Wind Chill: 26°   Ceiling: 3900
Heat Index: 36°   Visibility: 10mi
Dew Point: 25°   Wind: 16mph
Humidity: 64%   Direction: 280°W
Pressure: 29.61"   Gusts: 23mph
Location:  39.2125°N, 94.6296°W
Report Text: KMKC 241154Z 28014G20KT 10SM FEW030 OVC039 02/M04 A2961 RMK AO2 SLP030 60000 70011 T00221039 10061 20022 51012
Loading
Personal Weather Stations






























Interactive Weather Map New forecast layout! Learn more

10-Day Weather Forecast

Advertisements
Track Severe Weather on mobile